Time;durP1;ratioP1;P1;durP2;ratioP2;P2;SDS_P1;SDS_P2;PMS_P1;PMS_P2;Temp;Humidity;BMP_temperature;BMP_pressure;BME280_temperature;BME280_humidity;BME280_pressure;Samples;Min_cycle;Max_cycle;Signal;HPM_P1;HPM_P2
2021/01/20 00:02:22;;;;;;;124.30;55.28;;;;;;;-2.41;84.94;99612.83;1689533;84;25773;-56
2021/01/20 00:04:49;;;;;;;135.55;56.48;;;;;;;-2.39;85.21;99610.20;1689529;84;25934;-53
2021/01/20 00:07:16;;;;;;;128.45;56.30;;;;;;;-2.37;84.93;99614.73;1689506;84;25720;-55
2021/01/20 00:09:43;;;;;;;121.30;54.10;;;;;;;-2.34;84.91;99618.23;1689474;84;26024;-54
2021/01/20 00:12:10;;;;;;;140.70;55.63;;;;;;;-2.29;85.25;99621.49;1689389;84;25754;-51
2021/01/20 00:14:37;;;;;;;126.78;55.35;;;;;;;-2.27;85.22;99616.75;1689579;84;26146;-50
2021/01/20 00:17:04;;;;;;;115.37;50.60;;;;;;;-2.23;85.17;99611.77;1689588;84;26318;-58
2021/01/20 00:19:31;;;;;;;105.17;48.05;;;;;;;-2.20;85.24;99617.39;1689516;84;26304;-56
2021/01/20 00:21:57;;;;;;;108.80;46.20;;;;;;;-2.20;85.19;99612.09;1689647;84;27257;-56
2021/01/20 00:24:25;;;;;;;102.27;47.50;;;;;;;-2.19;85.20;99619.00;1689538;84;26309;-54
2021/01/20 00:26:51;;;;;;;105.25;46.77;;;;;;;-2.16;85.22;99619.86;1689203;84;25753;-55
2021/01/20 00:29:18;;;;;;;96.50;42.90;;;;;;;-2.14;85.84;99616.97;1689707;84;25683;-55
2021/01/20 00:31:45;;;;;;;100.15;43.35;;;;;;;-2.11;85.48;99620.44;1714172;83;25822;-56
2021/01/20 00:34:13;;;;;;;92.17;41.18;;;;;;;-2.07;85.54;99617.60;1719093;83;26258;-57
2021/01/20 00:36:39;;;;;;;91.53;38.05;;;;;;;-2.02;85.54;99612.91;1684989;85;26360;-59
2021/01/20 00:39:06;;;;;;;89.47;38.23;;;;;;;-1.99;85.46;99612.40;1685083;85;25804;-53
2021/01/20 00:41:33;;;;;;;84.15;36.88;;;;;;;-1.99;85.35;99602.63;1685183;84;25626;-58
2021/01/20 00:43:59;;;;;;;89.70;39.20;;;;;;;-1.97;85.36;99599.20;1685259;85;25836;-51
2021/01/20 00:46:26;;;;;;;84.03;40.88;;;;;;;-1.94;85.40;99601.38;1685107;84;25730;-58
2021/01/20 00:48:53;;;;;;;82.80;37.42;;;;;;;-1.91;85.41;99609.34;1684855;84;25736;-55
2021/01/20 00:51:19;;;;;;;98.15;38.02;;;;;;;-1.93;85.52;99605.61;1685266;84;25856;-53
2021/01/20 00:53:46;;;;;;;83.95;35.88;;;;;;;-1.93;85.38;99596.86;1677363;84;25904;-51
2021/01/20 00:56:13;;;;;;;88.20;37.05;;;;;;;-1.94;85.35;99596.07;1671897;85;26147;-51
2021/01/20 00:58:40;;;;;;;83.60;36.85;;;;;;;-1.92;85.36;99595.30;1672010;85;26016;-55
2021/01/20 01:01:07;;;;;;;78.15;34.83;;;;;;;-1.91;85.45;99591.61;1671767;85;26113;-54
2021/01/20 01:03:35;;;;;;;84.13;37.05;;;;;;;-1.93;85.29;99587.05;1671937;85;25736;-59
2021/01/20 01:06:02;;;;;;;85.20;37.53;;;;;;;-1.92;85.32;99589.20;1672020;85;25751;-50
2021/01/20 01:08:29;;;;;;;77.30;35.38;;;;;;;-1.91;85.37;99585.48;1672289;85;26055;-57
2021/01/20 01:10:58;;;;;;;85.40;35.40;;;;;;;-1.92;85.38;99586.55;1672096;85;26362;-58
2021/01/20 01:13:25;;;;;;;74.55;33.23;;;;;;;-1.93;85.36;99587.05;1672306;85;26045;-59
2021/01/20 01:15:52;;;;;;;75.90;31.68;;;;;;;-1.94;85.28;99580.66;1672373;85;25757;-58
2021/01/20 01:18:18;;;;;;;79.27;33.90;;;;;;;-1.93;85.18;99582.28;1672599;85;26634;-59
2021/01/20 01:20:45;;;;;;;79.07;34.65;;;;;;;-1.91;85.26;99585.48;1673994;85;25425;-49
2021/01/20 01:23:12;;;;;;;79.42;32.93;;;;;;;-1.91;85.17;99582.83;1672566;85;26182;-56
2021/01/20 01:25:39;;;;;;;75.75;34.33;;;;;;;-1.94;85.33;99572.72;1674235;85;25691;-58
2021/01/20 01:28:14;;;;;;;76.12;34.08;;;;;;;-1.95;85.21;99583.05;1674305;85;25406;-48
2021/01/20 01:30:41;;;;;;;76.92;34.30;;;;;;;-1.95;85.32;99589.69;1646998;86;25673;-57
2021/01/20 01:33:09;;;;;;;72.58;31.52;;;;;;;-1.94;85.19;99585.97;1674439;85;25603;-60
2021/01/20 01:35:36;;;;;;;75.67;33.88;;;;;;;-1.95;85.22;99586.50;1674213;85;26258;-56
2021/01/20 01:38:03;;;;;;;74.77;33.13;;;;;;;-1.96;85.18;99586.23;1674330;85;25615;-57
2021/01/20 01:40:30;;;;;;;71.47;31.90;;;;;;;-1.95;85.23;99583.84;1674377;85;25362;-56
2021/01/20 01:42:57;;;;;;;74.27;33.60;;;;;;;-1.96;85.10;99579.61;1674235;85;25386;-58
2021/01/20 01:45:24;;;;;;;76.62;33.00;;;;;;;-1.96;85.12;99571.66;1674349;85;25588;-59
2021/01/20 01:47:51;;;;;;;69.53;30.90;;;;;;;-1.97;85.20;99566.06;1674337;85;25928;-57
2021/01/20 01:50:18;;;;;;;66.30;30.00;;;;;;;-1.97;85.11;99571.90;1674198;85;25673;-57
2021/01/20 01:52:45;;;;;;;72.37;32.30;;;;;;;-1.97;85.02;99571.37;1674279;85;25654;-59
2021/01/20 01:55:11;;;;;;;73.20;32.38;;;;;;;-1.99;85.36;99562.86;1662366;86;25521;-57
2021/01/20 01:57:40;;;;;;;74.35;31.50;;;;;;;-1.98;85.05;99570.28;1675796;85;25634;-57
2021/01/20 02:00:10;;;;;;;77.67;33.95;;;;;;;-2.00;84.96;99571.84;1675942;85;25703;-55
2021/01/20 02:02:37;;;;;;;79.30;34.15;;;;;;;-2.00;85.01;99569.73;1675840;85;25699;-57
2021/01/20 02:05:06;;;;;;;72.42;32.00;;;;;;;-1.99;85.18;99564.69;1675695;85;25646;-56
2021/01/20 02:07:35;;;;;;;73.62;31.55;;;;;;;-2.00;85.01;99562.57;1675879;85;25693;-56
2021/01/20 02:10:05;;;;;;;68.40;29.87;;;;;;;-2.02;85.08;99559.37;1675653;85;25393;-57
2021/01/20 02:12:45;;;;;;;75.35;32.48;;;;;;;-2.02;84.91;99563.88;1675790;85;26067;-55
2021/01/20 02:15:21;;;;;;;77.17;30.17;;;;;;;-2.03;85.05;99561.73;1662350;86;25765;-51
2021/01/20 02:18:08;;;;;;;72.15;33.95;;;;;;;-2.04;85.08;99565.44;1662423;85;25487;-57
2021/01/20 02:20:48;;;;;;;66.37;29.25;;;;;;;-2.03;84.99;99564.38;1662453;86;25677;-57
2021/01/20 02:23:18;;;;;;;72.62;30.37;;;;;;;-2.02;84.99;99569.97;1661515;86;25552;-57
2021/01/20 02:25:53;;;;;;;71.45;32.88;;;;;;;-2.03;85.10;99568.35;1662366;86;25969;-45
2021/01/20 02:28:24;;;;;;;71.57;30.05;;;;;;;-2.01;84.99;99568.94;1661926;86;25576;-41
2021/01/20 02:30:51;;;;;;;78.07;32.53;;;;;;;-1.98;85.03;99575.59;1662354;85;25581;-57
2021/01/20 02:33:22;;;;;;;71.70;32.10;;;;;;;-1.96;85.01;99582.27;1662375;86;25607;-57
2021/01/20 02:36:03;;;;;;;73.42;31.37;;;;;;;-1.95;85.06;99573.78;1662485;85;25280;-58
2021/01/20 02:38:30;;;;;;;69.47;30.20;;;;;;;-1.95;85.05;99571.12;1675743;85;26688;-50
2021/01/20 02:40:57;;;;;;;67.45;31.25;;;;;;;-1.98;84.82;99568.95;1675739;85;25366;-56
2021/01/20 02:43:25;;;;;;;77.00;31.27;;;;;;;-2.01;84.77;99561.48;1675857;85;25561;-57
2021/01/20 02:45:52;;;;;;;69.70;31.25;;;;;;;-2.04;84.78;99561.47;1675705;85;25371;-48
2021/01/20 02:48:20;;;;;;;75.30;33.95;;;;;;;-2.05;84.91;99562.50;1675797;85;25438;-44
2021/01/20 02:50:47;;;;;;;66.10;29.82;;;;;;;-2.06;84.84;99559.56;1675765;85;25798;-58
2021/01/20 02:53:16;;;;;;;66.77;30.92;;;;;;;-2.08;84.99;99565.13;1675371;85;25366;-57
2021/01/20 02:55:55;;;;;;;69.15;30.52;;;;;;;-2.11;84.94;99566.94;1674078;85;25601;-58
2021/01/20 02:58:31;;;;;;;66.53;30.05;;;;;;;-2.11;84.98;99567.44;1673314;85;25442;-58
2021/01/20 03:01:01;;;;;;;70.70;29.42;;;;;;;-2.12;84.99;99560.55;1674355;85;25435;-58
2021/01/20 03:03:31;;;;;;;68.95;30.48;;;;;;;-2.11;85.00;99562.14;1674286;85;26918;-59
2021/01/20 03:05:57;;;;;;;70.70;29.85;;;;;;;-2.08;85.08;99570.93;1674225;85;25523;-60
2021/01/20 03:08:26;;;;;;;69.87;31.82;;;;;;;-2.07;84.95;99572.02;1674300;85;25681;-59
2021/01/20 03:10:53;;;;;;;65.87;29.50;;;;;;;-2.05;85.13;99574.95;1674429;85;25458;-59
2021/01/20 03:13:23;;;;;;;69.12;29.98;;;;;;;-2.08;85.11;99569.61;1674387;85;25683;-55
2021/01/20 03:15:52;;;;;;;68.97;29.92;;;;;;;-2.10;84.84;99552.63;1674326;85;26862;-58
2021/01/20 03:18:19;;;;;;;55.83;26.33;;;;;;;-2.08;84.94;99545.75;1674369;85;25393;-59
2021/01/20 03:20:46;;;;;;;72.78;28.87;;;;;;;-2.07;84.87;99554.00;1674385;85;25551;-60
2021/01/20 03:23:13;;;;;;;65.42;29.30;;;;;;;-2.08;84.87;99549.73;1674268;85;25646;-56
2021/01/20 03:25:40;;;;;;;70.47;30.00;;;;;;;-2.11;84.88;99548.38;1674302;85;25529;-58
2021/01/20 03:28:07;;;;;;;67.15;29.77;;;;;;;-2.10;84.94;99546.52;1674284;85;25725;-58
2021/01/20 03:30:34;;;;;;;70.08;29.75;;;;;;;-2.11;84.88;99555.01;1674302;85;25652;-57
2021/01/20 03:33:00;;;;;;;70.30;28.95;;;;;;;-2.11;84.99;99559.48;1674286;85;25502;-58
2021/01/20 03:35:27;;;;;;;68.25;29.60;;;;;;;-2.13;84.86;99562.91;1674189;85;25591;-59
2021/01/20 03:37:54;;;;;;;68.87;28.02;;;;;;;-2.13;85.04;99560.26;1674345;85;25612;-56
2021/01/20 03:40:21;;;;;;;69.07;30.50;;;;;;;-2.13;84.92;99565.05;1674191;85;26175;-58
2021/01/20 03:42:47;;;;;;;64.27;28.85;;;;;;;-2.13;84.91;99565.05;1674250;85;25668;-56
2021/01/20 03:45:15;;;;;;;68.75;30.05;;;;;;;-2.13;85.06;99567.70;1674360;85;25413;-55
2021/01/20 03:47:42;;;;;;;68.30;28.40;;;;;;;-2.12;84.89;99573.80;1674033;85;25724;-58
2021/01/20 03:50:11;;;;;;;69.58;30.85;;;;;;;-2.12;84.90;99560.55;1674385;85;25583;-58
2021/01/20 03:52:38;;;;;;;68.80;30.45;;;;;;;-2.14;84.82;99558.14;1674305;85;26252;-59
2021/01/20 03:55:06;;;;;;;72.03;29.32;;;;;;;-2.11;84.87;99566.11;1674901;85;25765;-59
2021/01/20 03:57:33;;;;;;;67.97;30.10;;;;;;;-2.11;84.80;99564.28;1675725;85;25358;-59
2021/01/20 04:00:00;;;;;;;67.03;30.57;;;;;;;-2.10;84.78;99575.67;1675631;85;25520;-58
2021/01/20 04:02:27;;;;;;;65.87;30.35;;;;;;;-2.10;84.78;99578.33;1675771;85;25391;-60
2021/01/20 04:04:53;;;;;;;70.85;30.65;;;;;;;-2.11;84.72;99565.61;1675468;85;26288;-59
2021/01/20 04:07:20;;;;;;;72.70;31.23;;;;;;;-2.10;84.81;99563.75;1675635;85;25417;-58
2021/01/20 04:09:47;;;;;;;69.53;31.10;;;;;;;-2.09;84.80;99558.75;1675726;85;25630;-59
2021/01/20 04:12:13;;;;;;;64.87;28.27;;;;;;;-2.10;84.71;99556.59;1675592;85;25609;-59
2021/01/20 04:14:40;;;;;;;64.72;29.30;;;;;;;-2.11;84.74;99553.69;1675704;85;25532;-59
2021/01/20 04:17:07;;;;;;;61.70;27.80;;;;;;;-2.12;84.75;99548.09;1675767;85;27077;-59
2021/01/20 04:19:34;;;;;;;68.15;31.02;;;;;;;-2.15;84.75;99544.59;1675640;85;25721;-58
2021/01/20 04:22:01;;;;;;;64.40;28.15;;;;;;;-2.15;84.71;99543.27;1675721;85;25407;-59
2021/01/20 04:24:28;;;;;;;64.40;28.57;;;;;;;-2.15;84.85;99545.13;1675661;85;25382;-59
2021/01/20 04:26:54;;;;;;;70.32;28.90;;;;;;;-2.18;84.82;99546.44;1675601;85;25595;-51
2021/01/20 04:29:21;;;;;;;71.65;29.37;;;;;;;-2.18;84.90;99543.78;1675716;85;25962;-57
2021/01/20 04:31:48;;;;;;;71.85;30.75;;;;;;;-2.17;84.92;99548.02;1675665;85;25604;-56
2021/01/20 04:34:15;;;;;;;61.45;28.07;;;;;;;-2.16;85.05;99544.84;1675540;85;25370;-58
2021/01/20 04:36:41;;;;;;;65.75;28.40;;;;;;;-2.18;84.93;99539.81;1675693;85;25440;-57
2021/01/20 04:39:08;;;;;;;61.68;27.67;;;;;;;-2.18;84.85;99537.66;1675763;85;25510;-52
2021/01/20 04:41:35;;;;;;;65.20;29.18;;;;;;;-2.18;84.95;99531.86;1675681;85;25727;-55
2021/01/20 04:44:02;;;;;;;64.50;28.02;;;;;;;-2.18;85.04;99530.53;1675642;85;25377;-56
2021/01/20 04:46:29;;;;;;;62.45;30.45;;;;;;;-2.19;84.97;99534.75;1662270;86;25525;-58
2021/01/20 04:48:58;;;;;;;64.58;29.42;;;;;;;-2.20;85.05;99536.58;1662371;86;25998;-57
2021/01/20 04:51:27;;;;;;;64.87;27.60;;;;;;;-2.19;85.05;99553.30;1662441;86;25692;-56
2021/01/20 04:53:55;;;;;;;61.75;26.62;;;;;;;-2.19;85.06;99550.64;1663369;84;25992;-58
2021/01/20 04:56:24;;;;;;;60.05;28.00;;;;;;;-2.21;84.98;99547.41;1674227;85;25578;-57
2021/01/20 04:58:55;;;;;;;64.77;27.32;;;;;;;-2.21;84.99;99550.89;1674303;85;25511;-53
2021/01/20 05:01:22;;;;;;;63.87;28.00;;;;;;;-2.21;85.07;99542.11;1674222;85;25404;-57
2021/01/20 05:03:50;;;;;;;62.93;29.23;;;;;;;-2.20;85.11;99535.78;1674242;85;25503;-56
2021/01/20 05:06:17;;;;;;;62.88;27.02;;;;;;;-2.19;85.12;99540.05;1674243;85;25999;-57
2021/01/20 05:08:43;;;;;;;61.15;26.20;;;;;;;-2.17;85.20;99533.98;1674079;85;25579;-57
2021/01/20 05:11:10;;;;;;;62.80;28.83;;;;;;;-2.18;85.12;99537.16;1674196;85;25629;-50
2021/01/20 05:13:37;;;;;;;59.00;25.45;;;;;;;-2.16;85.15;99540.86;1674076;85;25574;-57
2021/01/20 05:16:04;;;;;;;60.43;27.62;;;;;;;-2.17;85.07;99540.07;1674093;85;25536;-57
2021/01/20 05:18:46;;;;;;;64.58;28.57;;;;;;;-2.16;85.17;99539.03;1674240;85;26262;-40
2021/01/20 05:21:18;;;;;;;65.25;29.52;;;;;;;-2.17;85.12;99543.25;1673448;85;25398;-57
2021/01/20 05:23:44;;;;;;;53.95;26.50;;;;;;;-2.15;85.42;99543.27;1674075;85;25592;-55
2021/01/20 05:26:11;;;;;;;58.73;27.87;;;;;;;-2.16;85.27;99528.44;1674196;85;25392;-57
2021/01/20 05:28:38;;;;;;;57.38;27.13;;;;;;;-2.15;85.31;99543.27;1674202;85;25685;-57
2021/01/20 05:31:05;;;;;;;57.70;26.50;;;;;;;-2.15;85.36;99540.62;1674027;85;26192;-57
2021/01/20 05:33:40;;;;;;;55.73;25.97;;;;;;;-2.16;85.30;99540.36;1674001;85;25405;-56
2021/01/20 05:36:12;;;;;;;58.38;26.70;;;;;;;-2.17;85.44;99542.72;1674185;85;25441;-56
2021/01/20 05:38:45;;;;;;;58.95;26.27;;;;;;;-2.15;85.61;99543.27;1674226;85;25561;-57
2021/01/20 05:41:25;;;;;;;59.73;26.57;;;;;;;-2.16;85.85;99541.69;1674290;85;25582;-57
2021/01/20 05:43:55;;;;;;;56.85;24.82;;;;;;;-2.17;85.76;99545.37;1674183;85;26438;-56
2021/01/20 05:46:30;;;;;;;55.78;26.23;;;;;;;-2.17;85.97;99549.34;1674123;85;25541;-57
2021/01/20 05:48:58;;;;;;;64.37;26.75;;;;;;;-2.16;85.70;99548.31;1674266;85;25445;-59
2021/01/20 05:51:25;;;;;;;58.10;27.67;;;;;;;-2.14;85.71;99540.91;1674084;85;25640;-57
2021/01/20 05:53:55;;;;;;;57.90;26.75;;;;;;;-2.11;85.71;99536.45;1674243;85;25460;-43
2021/01/20 05:56:27;;;;;;;56.85;26.57;;;;;;;-2.09;85.72;99544.96;1674371;84;26644;-55
2021/01/20 05:58:55;;;;;;;57.58;26.57;;;;;;;-2.10;85.81;99542.55;1674167;85;25635;-44
2021/01/20 06:01:23;;;;;;;59.23;27.77;;;;;;;-2.09;85.99;99545.49;1674339;85;25615;-54
2021/01/20 06:03:51;;;;;;;55.67;24.90;;;;;;;-2.08;85.78;99550.55;1674253;85;25689;-55
2021/01/20 06:06:19;;;;;;;55.73;26.45;;;;;;;-2.07;85.95;99556.65;1674252;85;25637;-56
2021/01/20 06:08:46;;;;;;;60.55;27.55;;;;;;;-2.03;86.09;99552.98;1674426;85;26194;-56
2021/01/20 06:11:13;;;;;;;57.43;25.85;;;;;;;-2.01;85.90;99553.03;1674241;85;25379;-53
2021/01/20 06:13:41;;;;;;;58.10;25.40;;;;;;;-2.00;85.92;99544.55;1674128;85;25655;-42
2021/01/20 06:16:17;;;;;;;63.60;28.42;;;;;;;-2.00;85.95;99547.99;1674406;85;25570;-57
2021/01/20 06:19:00;;;;;;;56.83;26.68;;;;;;;-1.98;85.98;99557.03;1674427;85;25604;-58
2021/01/20 06:21:28;;;;;;;55.03;26.15;;;;;;;-1.97;85.98;99553.34;1672613;85;26276;-56
2021/01/20 06:24:02;;;;;;;66.85;28.83;;;;;;;-1.98;86.23;99549.88;1673938;85;25788;-58
2021/01/20 06:26:29;;;;;;;55.15;24.30;;;;;;;-1.96;86.00;99549.13;1674302;85;25568;-54
2021/01/20 06:29:04;;;;;;;57.62;25.92;;;;;;;-1.95;86.16;99549.92;1674241;85;25391;-45
2021/01/20 06:31:35;;;;;;;60.03;26.52;;;;;;;-1.94;86.04;99554.16;1674376;85;25627;-41
2021/01/20 06:34:05;;;;;;;55.88;27.17;;;;;;;-1.93;85.97;99551.80;1673816;85;26693;-57
2021/01/20 06:36:37;;;;;;;54.38;26.20;;;;;;;-1.91;86.02;99555.83;1674238;85;25612;-58
2021/01/20 06:39:31;;;;;;;58.35;25.32;;;;;;;-1.91;86.11;99549.20;1674209;85;25630;-57
2021/01/20 06:42:00;;;;;;;60.85;28.17;;;;;;;-1.90;86.30;99555.30;1674230;85;25631;-46
2021/01/20 06:44:27;;;;;;;58.85;26.82;;;;;;;-1.87;86.05;99548.19;1674498;85;25598;-56
2021/01/20 06:47:01;;;;;;;56.10;26.25;;;;;;;-1.87;86.06;99546.86;1674274;85;27419;-46
2021/01/20 06:49:33;;;;;;;56.90;26.70;;;;;;;-1.84;86.13;99555.62;1674208;85;25587;-41
2021/01/20 06:52:13;;;;;;;54.40;26.82;;;;;;;-1.81;86.26;99551.16;1673657;85;25617;-52
2021/01/20 06:54:45;;;;;;;56.55;27.73;;;;;;;-1.78;86.20;99555.19;1674295;84;25373;-51
2021/01/20 06:57:31;;;;;;;60.52;27.58;;;;;;;-1.76;86.15;99541.16;1675102;85;25449;-54
2021/01/20 07:00:17;;;;;;;56.80;28.32;;;;;;;-1.74;86.26;99545.18;1675003;85;28039;-52
2021/01/20 07:03:04;;;;;;;57.88;25.80;;;;;;;-1.72;86.16;99548.38;1674946;85;25874;-56
2021/01/20 07:05:41;;;;;;;52.98;26.12;;;;;;;-1.70;86.33;99554.23;1669297;85;25645;-44
2021/01/20 07:08:11;;;;;;;55.90;26.12;;;;;;;-1.71;86.22;99549.97;1666340;85;25686;-57
2021/01/20 07:11:01;;;;;;;53.85;26.77;;;;;;;-1.69;86.28;99548.39;1667510;84;25723;-54
2021/01/20 07:13:37;;;;;;;64.35;28.17;;;;;;;-1.65;86.34;99553.50;1668907;85;26726;-58
2021/01/20 07:16:07;;;;;;;59.03;27.10;;;;;;;-1.61;86.40;99561.77;1668225;85;25849;-56
2021/01/20 07:18:40;;;;;;;60.23;25.52;;;;;;;-1.59;86.35;99560.99;1667153;85;25749;-57
2021/01/20 07:21:08;;;;;;;59.88;27.17;;;;;;;-1.56;86.27;99552.55;1677669;85;25662;-59
2021/01/20 07:23:35;;;;;;;55.25;27.55;;;;;;;-1.55;86.26;99557.61;1681651;85;25404;-51
2021/01/20 07:26:04;;;;;;;57.98;26.97;;;;;;;-1.53;86.21;99565.33;1681666;84;26173;-47
2021/01/20 07:28:32;;;;;;;59.10;28.20;;;;;;;-1.52;86.29;99559.75;1681413;84;25589;-56
2021/01/20 07:31:14;;;;;;;58.08;27.42;;;;;;;-1.48;86.41;99556.61;1681614;85;25640;-58
2021/01/20 07:33:53;;;;;;;51.68;26.33;;;;;;;-1.47;86.29;99545.75;1681505;84;25369;-45
2021/01/20 07:36:25;;;;;;;53.40;25.02;;;;;;;-1.44;86.29;99548.45;1680409;84;25642;-52
2021/01/20 07:38:52;;;;;;;55.55;25.17;;;;;;;-1.44;86.39;99549.77;1680923;84;26010;-56
2021/01/20 07:44:08;;;;;;;56.90;26.60;;;;;;;-1.37;86.45;99557.80;1846211;76;34025;-52
2021/01/20 07:46:35;;;;;;;56.90;26.80;;;;;;;-1.41;86.52;99558.56;1818122;78;25590;-50
2021/01/20 07:49:14;;;;;;;48.83;25.05;;;;;;;-1.39;86.59;99555.14;1818068;78;26133;-50
2021/01/20 07:51:41;;;;;;;53.05;26.97;;;;;;;-1.38;86.60;99561.53;1818317;78;25662;-53
2021/01/20 07:54:09;;;;;;;55.23;27.42;;;;;;;-1.35;86.63;99556.23;1817777;78;25783;-53
2021/01/20 07:56:36;;;;;;;53.80;26.35;;;;;;;-1.30;86.64;99553.64;1818344;78;25613;-46
2021/01/20 07:59:18;;;;;;;51.80;25.50;;;;;;;-1.27;86.67;99557.66;1818613;78;25488;-45
2021/01/20 08:01:46;;;;;;;55.70;26.82;;;;;;;-1.24;86.72;99558.47;1818736;78;25726;-49
2021/01/20 08:04:23;;;;;;;60.12;28.38;;;;;;;-1.22;86.77;99557.18;1818445;78;25538;-48
2021/01/20 08:06:51;;;;;;;55.65;27.27;;;;;;;-1.21;86.88;99557.47;1818660;78;25491;-49
2021/01/20 08:09:21;;;;;;;60.23;28.62;;;;;;;-1.16;86.92;99564.66;1818558;78;25487;-54
2021/01/20 08:11:48;;;;;;;59.98;28.87;;;;;;;-1.14;87.13;99569.22;1818774;78;25558;-55
2021/01/20 08:14:16;;;;;;;61.20;31.33;;;;;;;-1.10;87.01;99565.55;1818641;78;25678;-55
2021/01/20 08:16:43;;;;;;;65.15;31.80;;;;;;;-1.06;86.97;99554.69;1818628;78;25507;-52
2021/01/20 08:19:10;;;;;;;59.93;28.83;;;;;;;-1.01;87.29;99562.70;1818496;78;25575;-50
2021/01/20 08:21:36;;;;;;;63.90;29.40;;;;;;;-0.99;87.30;99566.73;1818595;78;25534;-49
2021/01/20 08:24:08;;;;;;;65.32;31.45;;;;;;;-0.97;87.32;99568.59;1818603;78;25600;-49
2021/01/20 08:26:35;;;;;;;68.95;30.88;;;;;;;-0.95;87.19;99560.39;1818549;78;25884;-49
2021/01/20 08:29:06;;;;;;;60.55;29.98;;;;;;;-0.91;87.27;99561.48;1818582;78;25633;-52
2021/01/20 08:31:35;;;;;;;62.88;30.32;;;;;;;-0.88;87.31;99564.17;1818555;78;25649;-57
2021/01/20 08:34:23;;;;;;;61.08;30.08;;;;;;;-0.85;87.31;99567.13;1818587;78;25595;-57
2021/01/20 08:37:07;;;;;;;57.23;30.80;;;;;;;-0.81;87.39;99568.22;1818696;78;25634;-45
2021/01/20 08:39:39;;;;;;;65.80;31.82;;;;;;;-0.76;87.40;99574.11;1748723;78;27947;-47
2021/01/20 08:42:29;;;;;;;67.05;30.02;;;;;;;-0.73;87.34;99577.59;1818462;78;25641;-53
2021/01/20 08:45:10;;;;;;;67.62;30.68;;;;;;;-0.68;87.34;99577.64;1818707;78;26222;-53
2021/01/20 08:47:48;;;;;;;63.68;30.77;;;;;;;-0.62;87.38;99583.80;1818557;78;25634;-53
2021/01/20 08:50:19;;;;;;;62.88;29.82;;;;;;;-0.58;87.46;99588.86;1818702;78;25728;-54
2021/01/20 08:52:51;;;;;;;64.12;30.20;;;;;;;-0.54;87.47;99584.67;1818542;78;26155;-57
2021/01/20 08:55:35;;;;;;;59.13;29.80;;;;;;;-0.51;87.47;99585.50;1817857;78;25694;-58
2021/01/20 08:58:30;;;;;;;66.12;30.62;;;;;;;-0.46;87.57;99598.00;1817556;78;25560;-55
2021/01/20 09:01:19;;;;;;;61.53;31.23;;;;;;;-0.44;87.53;99600.69;1816848;78;25589;-52
2021/01/20 09:03:59;;;;;;;63.93;31.30;;;;;;;-0.39;87.43;99600.73;1817104;78;25836;-40
2021/01/20 09:06:29;;;;;;;60.38;29.67;;;;;;;-0.34;87.40;99605.81;1817310;78;26308;-52
2021/01/20 09:08:57;;;;;;;57.73;29.72;;;;;;;-0.29;87.47;99601.86;1817032;78;25667;-49
2021/01/20 09:11:24;;;;;;;61.18;30.00;;;;;;;-0.24;87.56;99605.38;1786322;78;26944;-56
2021/01/20 09:13:54;;;;;;;59.77;29.18;;;;;;;-0.21;87.53;99600.86;1755693;81;25664;-54
2021/01/20 09:16:30;;;;;;;65.30;31.23;;;;;;;-0.17;87.60;99597.70;1755661;81;25741;-56
2021/01/20 09:18:58;;;;;;;60.80;30.70;;;;;;;-0.16;87.53;99597.45;1755510;81;26705;-46
2021/01/20 09:21:25;;;;;;;66.07;30.40;;;;;;;-0.14;87.47;99597.20;1755644;81;26053;-60
2021/01/20 09:23:52;;;;;;;65.72;32.08;;;;;;;-0.08;87.57;99610.81;1755677;81;25715;-60
2021/01/20 09:26:19;;;;;;;59.13;30.80;;;;;;;-0.04;87.79;99591.41;1755487;81;26067;-58
2021/01/20 09:28:46;;;;;;;62.13;32.28;;;;;;;-0.02;87.73;99593.82;1755790;81;25772;-55
2021/01/20 09:31:13;;;;;;;61.15;29.87;;;;;;;0.01;87.81;99593.85;1755808;81;25801;-45
2021/01/20 09:33:40;;;;;;;62.15;30.68;;;;;;;0.02;87.81;99592.78;1755321;81;26088;-57
2021/01/20 09:36:07;;;;;;;66.55;31.45;;;;;;;0.03;87.78;99590.41;1755670;81;25600;-47
2021/01/20 09:38:37;;;;;;;65.35;32.05;;;;;;;0.04;87.82;99585.38;1755780;81;25818;-42
2021/01/20 09:41:04;;;;;;;62.73;31.02;;;;;;;0.06;87.88;99583.25;1755680;81;32766;-51
2021/01/20 09:43:31;;;;;;;59.88;30.37;;;;;;;0.10;87.96;99583.00;1755758;81;25764;-42
2021/01/20 09:45:57;;;;;;;59.45;30.92;;;;;;;0.13;87.93;99575.30;1755780;81;26082;-49
2021/01/20 09:48:24;;;;;;;63.58;31.62;;;;;;;0.17;87.92;99578.25;1755176;81;25773;-54
2021/01/20 09:50:51;;;;;;;66.05;32.65;;;;;;;0.21;88.17;99583.88;1755575;81;25774;-53
2021/01/20 09:53:18;;;;;;;61.58;31.27;;;;;;;0.24;88.07;99582.83;1755828;81;26287;-52
2021/01/20 09:55:45;;;;;;;67.22;32.35;;;;;;;0.26;88.07;99583.37;1755403;81;25765;-48
2021/01/20 09:58:11;;;;;;;65.75;31.52;;;;;;;0.27;88.03;99576.97;1755652;81;25972;-46
2021/01/20 10:00:38;;;;;;;63.05;32.10;;;;;;;0.31;88.03;99579.94;1755599;81;25751;-44
2021/01/20 10:05:42;;;;;;;58.33;30.00;;;;;;;0.46;88.19;99583.19;1815486;78;33660;-53
2021/01/20 10:08:09;;;;;;;58.58;30.43;;;;;;;0.41;88.10;99569.35;1786577;80;26185;-46
2021/01/20 10:10:36;;;;;;;57.15;31.07;;;;;;;0.45;88.24;99579.73;1780108;80;26135;-55
2021/01/20 10:13:03;;;;;;;63.28;32.63;;;;;;;0.49;88.16;99574.69;1786556;80;25850;-57
2021/01/20 10:15:30;;;;;;;58.78;30.57;;;;;;;0.51;88.17;99571.23;1786452;80;25755;-48
2021/01/20 10:17:57;;;;;;;67.42;32.78;;;;;;;0.51;88.37;99557.42;1786346;80;25768;-50
2021/01/20 10:20:26;;;;;;;58.28;30.02;;;;;;;0.52;88.11;99561.66;1786592;80;25712;-56
2021/01/20 10:22:52;;;;;;;63.52;31.57;;;;;;;0.53;88.34;99557.16;1786691;80;26139;-55
2021/01/20 10:25:19;;;;;;;63.78;31.85;;;;;;;0.57;88.25;99566.75;1786252;80;25621;-55
2021/01/20 10:27:46;;;;;;;63.40;32.10;;;;;;;0.57;88.16;99561.43;1786556;80;25848;-55
2021/01/20 10:30:14;;;;;;;64.55;30.62;;;;;;;0.60;88.31;99562.25;1786610;79;25729;-55
2021/01/20 10:32:41;;;;;;;68.22;33.05;;;;;;;0.61;88.22;99564.63;1786461;80;25754;-57
2021/01/20 10:35:10;;;;;;;68.02;31.68;;;;;;;0.65;88.22;99556.94;1786532;80;27556;-56
2021/01/20 10:37:38;;;;;;;63.42;32.40;;;;;;;0.67;88.29;99557.48;1786298;79;26371;-58
2021/01/20 10:40:06;;;;;;;61.40;28.83;;;;;;;0.68;88.23;99557.22;1786284;79;25614;-62
2021/01/20 10:42:33;;;;;;;63.13;31.63;;;;;;;0.72;88.26;99566.81;1786828;80;25859;-61
2021/01/20 10:45:00;;;;;;;63.85;31.73;;;;;;;0.75;88.32;99560.97;1786592;80;25818;-55
2021/01/20 10:47:28;;;;;;;60.10;30.85;;;;;;;0.78;88.31;99552.44;1786340;80;27707;-57
2021/01/20 10:49:55;;;;;;;69.47;33.23;;;;;;;0.80;88.24;99542.34;1786160;80;25612;-55
2021/01/20 10:52:24;;;;;;;57.98;28.75;;;;;;;0.84;88.28;99543.95;1757621;79;25804;-48
2021/01/20 10:54:51;;;;;;;64.65;31.37;;;;;;;0.86;88.38;99547.14;1754807;81;25777;-56
2021/01/20 10:57:17;;;;;;;62.43;30.70;;;;;;;0.88;88.37;99542.34;1755483;81;25834;-48
2021/01/20 10:59:44;;;;;;;57.15;28.40;;;;;;;0.89;88.26;99544.75;1755447;81;26462;-57
2021/01/20 11:02:11;;;;;;;61.05;30.80;;;;;;;0.90;88.29;99549.03;1755077;81;25784;-58
2021/01/20 11:04:39;;;;;;;58.25;31.65;;;;;;;0.92;88.31;99545.56;1755357;81;25813;-50
2021/01/20 11:07:07;;;;;;;64.27;32.20;;;;;;;0.96;88.57;99555.70;1755518;81;25668;-55
2021/01/20 11:09:34;;;;;;;59.13;31.80;;;;;;;0.95;88.25;99550.09;1755204;81;26009;-51
2021/01/20 11:12:02;;;;;;;60.85;32.00;;;;;;;0.96;88.33;99541.84;1740953;81;25760;-47
2021/01/20 11:14:29;;;;;;;60.98;32.33;;;;;;;0.98;88.42;99529.59;1737472;82;25672;-46
2021/01/20 11:16:58;;;;;;;63.90;31.40;;;;;;;0.96;88.30;99528.52;1749062;81;25800;-47
2021/01/20 11:19:25;;;;;;;69.50;34.20;;;;;;;0.95;88.34;99530.91;1708901;83;25642;-53
2021/01/20 11:21:53;;;;;;;62.43;29.95;;;;;;;0.96;88.46;99526.41;1738624;82;25793;-52
2021/01/20 11:24:22;;;;;;;73.57;34.43;;;;;;;0.98;88.52;99516.28;1767320;81;26687;-55
2021/01/20 11:26:50;;;;;;;64.82;30.80;;;;;;;0.99;88.53;99531.17;1767317;81;30954;-47
2021/01/20 11:29:18;;;;;;;68.50;32.15;;;;;;;1.00;88.51;99518.14;1767468;81;25843;-49
2021/01/20 11:31:45;;;;;;;71.72;32.55;;;;;;;1.04;88.62;99525.34;1767512;81;25717;-55
2021/01/20 11:34:12;;;;;;;69.70;33.92;;;;;;;1.06;88.60;99522.42;1767646;81;25786;-48
2021/01/20 11:36:38;;;;;;;67.60;34.40;;;;;;;1.07;88.51;99518.68;1709321;83;26907;-52